createdAt,value
2022-12-23T00:00:22.958Z,49.22
2022-12-23T00:02:50.476Z,47.75
2022-12-23T00:05:17.881Z,47.83
2022-12-23T00:07:45.255Z,47.35
2022-12-23T00:10:12.584Z,47.55
2022-12-23T00:12:58.333Z,47.28
2022-12-23T00:18:21.081Z,46.05
2022-12-23T00:20:48.424Z,47.50
2022-12-23T00:23:17.715Z,45.20
2022-12-23T00:25:45.190Z,47.10
2022-12-23T00:28:17.636Z,46.75
2022-12-23T00:31:05.511Z,47.00
2022-12-23T00:33:44.165Z,46.92
2022-12-23T00:36:12.606Z,46.05
2022-12-23T00:39:09.227Z,46.88
2022-12-23T00:41:55.369Z,46.30
2022-12-23T00:44:22.605Z,46.42
2022-12-23T00:46:50.272Z,46.72
2022-12-23T00:49:42.601Z,46.13
2022-12-23T00:52:13.451Z,46.42
2022-12-23T00:55:06.012Z,46.80
2022-12-23T00:57:33.282Z,47.63
2022-12-23T01:00:00.611Z,46.10
2022-12-23T01:02:46.479Z,47.88
2022-12-23T01:05:32.570Z,47.47
2022-12-23T01:07:59.855Z,48.03
2022-12-23T01:10:30.372Z,47.08
2022-12-23T01:12:58.193Z,47.95
2022-12-23T01:15:25.472Z,47.35
2022-12-23T01:17:59.263Z,49.08
2022-12-23T01:20:28.653Z,48.85
2022-12-23T01:23:09.667Z,50.25
2022-12-23T01:25:36.949Z,48.90
2022-12-23T01:28:08.882Z,50.45
2022-12-23T01:30:43.666Z,49.85
2022-12-23T01:33:29.602Z,47.50
2022-12-23T01:36:01.765Z,50.67
2022-12-23T01:38:29.952Z,51.55
2022-12-23T01:40:57.356Z,48.50
2022-12-23T01:43:48.351Z,46.53
2022-12-23T01:46:15.899Z,36.67
2022-12-23T01:48:51.114Z,34.72
2022-12-23T01:51:42.457Z,34.45
2022-12-23T01:54:27.311Z,36.28
2022-12-23T01:56:54.690Z,34.42
2022-12-23T01:59:40.318Z,34.50
2022-12-23T02:02:36.524Z,32.80
2022-12-23T02:05:04.185Z,34.60
2022-12-23T02:07:50.720Z,34.35
2022-12-23T02:10:18.190Z,34.65
2022-12-23T02:13:11.878Z,33.90
2022-12-23T02:16:12.599Z,33.40
2022-12-23T02:18:43.066Z,32.00
2022-12-23T02:21:39.394Z,32.08
2022-12-23T02:24:39.029Z,31.45
2022-12-23T02:27:25.162Z,31.70
2022-12-23T02:30:20.494Z,33.42
2022-12-23T02:33:36.131Z,31.95
2022-12-23T02:36:27.153Z,31.60
2022-12-23T02:39:21.595Z,30.73
2022-12-23T02:41:59.098Z,30.40
2022-12-23T02:44:43.926Z,30.60
2022-12-23T02:47:20.796Z,31.77
2022-12-23T02:49:54.185Z,31.33
2022-12-23T02:52:28.806Z,31.50
2022-12-23T02:55:58.385Z,31.27
2022-12-23T02:58:21.886Z,30.75
2022-12-23T03:00:50.764Z,32.10
2022-12-23T03:03:21.171Z,31.95
2022-12-23T03:05:51.354Z,30.50
2022-12-23T03:08:32.033Z,31.60
2022-12-23T03:11:07.745Z,30.80
2022-12-23T03:13:53.114Z,31.67
2022-12-23T03:16:43.366Z,29.75
2022-12-23T03:19:49.638Z,31.75
2022-12-23T03:22:34.415Z,31.45
2022-12-23T03:25:24.430Z,31.02
2022-12-23T03:28:24.456Z,31.33
2022-12-23T03:30:56.099Z,29.40
2022-12-23T03:33:39.413Z,29.38
2022-12-23T03:36:15.329Z,28.13
2022-12-23T03:38:45.039Z,26.17
2022-12-23T03:41:20.010Z,25.70
2022-12-23T03:43:57.923Z,24.98
2022-12-23T03:46:37.108Z,23.58
2022-12-23T03:49:10.049Z,25.27
2022-12-23T03:51:52.648Z,25.52
2022-12-23T03:54:27.603Z,25.77
2022-12-23T03:57:02.319Z,25.77
2022-12-23T03:59:36.130Z,25.23
2022-12-23T04:02:33.823Z,26.90
2022-12-23T04:05:35.444Z,25.73
2022-12-23T04:08:24.185Z,26.08
2022-12-23T04:10:52.245Z,26.83
2022-12-23T04:13:19.588Z,25.85
2022-12-23T04:15:47.193Z,27.85
2022-12-23T04:18:39.558Z,28.13
2022-12-23T04:21:12.852Z,26.83
2022-12-23T04:23:40.348Z,27.05
2022-12-23T04:26:07.647Z,29.92
2022-12-23T04:28:48.793Z,30.13
2022-12-23T04:31:16.110Z,29.30
2022-12-23T04:33:43.459Z,29.58
2022-12-23T04:36:11.523Z,31.33
2022-12-23T04:38:38.827Z,31.38
2022-12-23T04:41:06.087Z,32.22
2022-12-23T04:43:36.077Z,31.98
2022-12-23T04:46:05.961Z,31.92
2022-12-23T04:48:33.287Z,31.95
2022-12-23T04:51:02.778Z,32.80
2022-12-23T04:53:30.043Z,32.72
2022-12-23T04:55:57.309Z,34.03
2022-12-23T04:58:25.158Z,31.77
2022-12-23T05:01:03.516Z,30.98
2022-12-23T05:03:31.476Z,29.50
2022-12-23T05:06:10.593Z,29.23
2022-12-23T05:08:40.005Z,28.00
2022-12-23T05:11:07.533Z,27.95
2022-12-23T05:13:37.835Z,28.50
2022-12-23T05:16:05.561Z,29.13
2022-12-23T05:18:32.891Z,28.00
2022-12-23T05:21:00.138Z,28.00
2022-12-23T05:23:27.418Z,28.05
2022-12-23T05:25:55.018Z,25.15
2022-12-23T05:28:22.793Z,25.90
2022-12-23T05:31:00.305Z,25.63
2022-12-23T05:33:28.144Z,24.65
2022-12-23T05:35:56.701Z,25.45
2022-12-23T05:38:24.659Z,23.48
2022-12-23T05:40:52.441Z,23.20
2022-12-23T05:43:19.813Z,23.45
2022-12-23T05:45:50.088Z,22.25
2022-12-23T05:48:17.653Z,23.23
2022-12-23T05:50:45.135Z,22.83
2022-12-23T05:53:12.771Z,22.40
2022-12-23T05:55:40.297Z,21.35
2022-12-23T05:58:12.189Z,20.90
2022-12-23T06:00:40.656Z,20.85
2022-12-23T06:03:08.001Z,21.80
2022-12-23T06:05:37.687Z,21.77
2022-12-23T06:08:10.755Z,20.98
2022-12-23T06:10:38.191Z,21.60
2022-12-23T06:13:05.477Z,21.05
2022-12-23T06:15:33.802Z,21.15
2022-12-23T06:18:01.156Z,21.00
2022-12-23T06:20:28.526Z,22.45
2022-12-23T06:22:55.751Z,22.15
2022-12-23T06:25:23.139Z,21.95
2022-12-23T06:27:50.380Z,23.08
2022-12-23T06:30:17.748Z,23.55
2022-12-23T06:32:45.114Z,25.00
2022-12-23T06:35:12.457Z,24.85
2022-12-23T06:37:42.128Z,22.52
2022-12-23T06:40:10.038Z,22.65
2022-12-23T06:42:37.420Z,22.85
2022-12-23T06:45:13.488Z,22.10
2022-12-23T06:47:40.751Z,22.42
2022-12-23T06:50:09.150Z,21.05
2022-12-23T06:52:36.397Z,19.80
2022-12-23T06:55:04.436Z,21.10
2022-12-23T06:57:31.988Z,21.00
2022-12-23T06:59:59.254Z,20.63
2022-12-23T07:02:26.550Z,21.98
2022-12-23T07:04:53.892Z,21.80
2022-12-23T07:07:21.560Z,22.77
2022-12-23T07:09:48.898Z,21.83
2022-12-23T07:12:17.859Z,23.02
2022-12-23T07:14:45.140Z,25.65
2022-12-23T07:17:12.547Z,26.25
2022-12-23T07:19:41.640Z,28.77
2022-12-23T07:22:10.178Z,28.83
2022-12-23T07:24:37.802Z,29.67
2022-12-23T07:27:05.286Z,26.98
2022-12-23T07:29:32.512Z,25.95
2022-12-23T07:32:02.994Z,25.80
2022-12-23T07:34:30.336Z,22.30
2022-12-23T07:36:57.602Z,20.75
2022-12-23T07:39:24.902Z,19.50
2022-12-23T07:42:03.828Z,19.75
2022-12-23T07:44:39.813Z,18.65
2022-12-23T07:47:07.564Z,18.92
2022-12-23T07:49:37.351Z,17.85
2022-12-23T07:52:04.971Z,17.85
2022-12-23T07:54:32.291Z,18.05
2022-12-23T07:57:01.945Z,17.95
2022-12-23T07:59:29.233Z,17.23
2022-12-23T08:01:56.598Z,16.13
2022-12-23T08:04:24.097Z,16.33
2022-12-23T08:06:51.521Z,15.65
2022-12-23T08:09:18.858Z,15.63
2022-12-23T08:11:46.210Z,15.88
2022-12-23T08:14:13.508Z,19.60
2022-12-23T08:16:43.800Z,17.42
2022-12-23T08:19:11.796Z,17.67
2022-12-23T08:21:39.020Z,18.52
2022-12-23T08:24:09.600Z,18.02
2022-12-23T08:26:36.914Z,19.38
2022-12-23T08:29:04.144Z,18.42
2022-12-23T08:31:34.317Z,18.27
2022-12-23T08:34:04.772Z,17.45
2022-12-23T08:36:34.829Z,17.83
2022-12-23T08:39:27.539Z,18.25
2022-12-23T08:41:58.023Z,18.48
2022-12-23T08:44:27.848Z,19.13
2022-12-23T08:46:55.778Z,19.92
2022-12-23T08:49:23.251Z,18.17
2022-12-23T08:51:56.836Z,19.02
2022-12-23T08:54:28.188Z,18.05
2022-12-23T08:56:55.477Z,18.80
2022-12-23T08:59:25.075Z,18.88
2022-12-23T09:02:05.404Z,18.52
2022-12-23T09:04:32.791Z,20.20
2022-12-23T09:07:00.104Z,17.60
2022-12-23T09:09:27.449Z,18.27
2022-12-23T09:11:55.872Z,19.05
2022-12-23T09:14:25.471Z,20.48
2022-12-23T09:16:52.893Z,19.88
2022-12-23T09:19:22.454Z,18.45
2022-12-23T09:21:49.856Z,20.25
2022-12-23T09:24:17.220Z,21.85
2022-12-23T09:26:47.800Z,22.63
2022-12-23T09:29:15.079Z,23.08
2022-12-23T09:31:42.389Z,21.55
2022-12-23T09:34:12.047Z,20.83
2022-12-23T09:36:41.556Z,21.95
2022-12-23T09:39:10.586Z,22.88
2022-12-23T09:42:01.588Z,23.88
2022-12-23T09:44:38.820Z,25.92
2022-12-23T09:47:32.544Z,26.83
2022-12-23T09:50:08.608Z,26.38
2022-12-23T09:52:51.461Z,26.48
2022-12-23T09:55:19.883Z,25.08
2022-12-23T09:58:02.050Z,27.77
2022-12-23T10:00:43.871Z,26.52
2022-12-23T10:03:19.483Z,25.90
2022-12-23T10:06:14.320Z,31.45
2022-12-23T10:09:08.080Z,33.60
2022-12-23T10:11:56.382Z,36.85
2022-12-23T10:14:32.925Z,36.85
2022-12-23T10:17:14.076Z,38.53
2022-12-23T10:19:47.381Z,37.53
2022-12-23T10:22:22.896Z,39.15
2022-12-23T10:24:57.603Z,37.13
2022-12-23T10:27:32.816Z,39.10
2022-12-23T10:30:33.625Z,38.60
2022-12-23T10:33:22.119Z,37.70
2022-12-23T10:36:17.727Z,38.25
2022-12-23T10:39:17.441Z,39.03
2022-12-23T10:42:12.766Z,38.40
2022-12-23T10:44:45.883Z,36.63
2022-12-23T10:47:31.270Z,37.42
2022-12-23T10:50:37.084Z,36.80
2022-12-23T10:53:09.865Z,36.75
2022-12-23T10:55:38.592Z,36.90
2022-12-23T10:58:20.273Z,38.63
2022-12-23T11:01:00.250Z,38.65
2022-12-23T11:03:32.271Z,37.08
2022-12-23T11:06:37.230Z,36.70
2022-12-23T11:09:18.273Z,36.72
2022-12-23T11:12:23.348Z,37.92
2022-12-23T11:15:30.737Z,37.45
2022-12-23T11:18:07.185Z,37.13
2022-12-23T11:20:36.549Z,36.70
2022-12-23T11:23:05.825Z,35.20
2022-12-23T11:25:41.175Z,35.75
2022-12-23T11:28:22.467Z,37.43
2022-12-23T11:31:12.136Z,36.55
2022-12-23T11:33:52.142Z,37.65
2022-12-23T11:37:00.201Z,36.83
2022-12-23T11:39:32.912Z,35.15
2022-12-23T11:42:17.339Z,35.63
2022-12-23T11:44:49.011Z,34.55
2022-12-23T11:47:22.113Z,35.45
2022-12-23T11:49:51.618Z,34.17
2022-12-23T11:52:21.591Z,34.17
2022-12-23T11:54:55.578Z,33.03
2022-12-23T11:57:47.988Z,32.83
2022-12-23T12:00:28.834Z,31.15
2022-12-23T12:03:03.001Z,33.08
2022-12-23T12:05:46.574Z,32.72
2022-12-23T12:08:16.286Z,32.83
2022-12-23T12:10:45.075Z,33.35
2022-12-23T12:13:29.731Z,31.98
2022-12-23T12:16:14.369Z,33.35
2022-12-23T12:18:53.670Z,32.45
2022-12-23T12:21:28.610Z,32.78
2022-12-23T12:24:19.604Z,31.98
2022-12-23T12:27:12.335Z,32.28
2022-12-23T12:33:01.605Z,30.40
2022-12-23T12:35:44.184Z,31.02
2022-12-23T12:38:26.544Z,30.33
2022-12-23T12:41:07.393Z,31.05
2022-12-23T12:43:40.207Z,30.33
2022-12-23T12:46:41.200Z,32.00
2022-12-23T12:52:41.522Z,29.38
2022-12-23T12:55:13.687Z,27.40
2022-12-23T12:57:43.474Z,27.70
2022-12-23T13:00:19.623Z,28.02
2022-12-23T13:02:50.159Z,25.85
2022-12-23T13:05:37.903Z,26.45
2022-12-23T13:12:25.137Z,25.73
2022-12-23T13:15:14.329Z,26.08
2022-12-23T13:18:07.043Z,27.17
2022-12-23T13:21:08.052Z,27.35
2022-12-23T13:24:52.993Z,28.48
2022-12-23T13:27:47.081Z,27.80
2022-12-23T13:30:39.172Z,28.95
2022-12-23T13:33:24.226Z,29.05
2022-12-23T13:36:04.986Z,28.73
2022-12-23T13:39:15.627Z,30.05
2022-12-23T13:42:13.619Z,29.13
2022-12-23T13:45:25.659Z,29.27
2022-12-23T13:48:15.526Z,27.20
2022-12-23T13:50:59.139Z,28.42
2022-12-23T13:53:37.638Z,26.67
2022-12-23T13:56:32.738Z,28.35
2022-12-23T13:59:00.350Z,27.40
2022-12-23T14:01:46.161Z,28.23
2022-12-23T14:04:58.440Z,26.95
2022-12-23T14:08:07.213Z,27.27
2022-12-23T14:10:36.781Z,34.55
2022-12-23T14:13:07.859Z,39.03
2022-12-23T14:15:42.639Z,36.60
2022-12-23T14:18:42.976Z,34.30
2022-12-23T14:21:40.449Z,34.55
2022-12-23T14:24:29.055Z,36.13
2022-12-23T14:27:36.656Z,48.03
2022-12-23T14:32:46.687Z,43.00
2022-12-23T14:35:36.965Z,40.35
2022-12-23T14:38:36.914Z,42.60
2022-12-23T14:41:38.206Z,41.67
2022-12-23T14:44:59.038Z,43.55
2022-12-23T14:47:36.564Z,42.30
2022-12-23T14:50:33.106Z,42.05
2022-12-23T14:53:21.176Z,42.88
2022-12-23T14:55:50.299Z,41.15
2022-12-23T14:58:27.800Z,41.28
2022-12-23T15:01:13.140Z,39.47
2022-12-23T15:03:55.963Z,40.65
2022-12-23T15:06:38.009Z,41.42
2022-12-23T15:09:10.051Z,40.55
2022-12-23T15:11:39.904Z,41.60
2022-12-23T15:14:28.530Z,42.03
2022-12-23T15:16:56.080Z,43.75
2022-12-23T15:19:26.417Z,44.38
2022-12-23T15:22:19.933Z,45.60
2022-12-23T15:24:51.270Z,47.83
2022-12-23T15:27:29.384Z,46.17
2022-12-23T15:30:20.960Z,47.47
2022-12-23T15:32:51.882Z,47.80
2022-12-23T15:35:54.765Z,49.50
2022-12-23T15:41:48.081Z,51.00
2022-12-23T15:44:24.152Z,50.85
2022-12-23T15:46:52.613Z,51.58
2022-12-23T15:49:37.323Z,53.03
2022-12-23T15:52:12.496Z,53.85
2022-12-23T15:55:11.508Z,50.58
2022-12-23T15:57:49.975Z,52.42
2022-12-23T16:00:29.077Z,53.65
2022-12-23T16:03:01.562Z,54.00
2022-12-23T16:05:38.316Z,55.67
2022-12-23T16:08:28.509Z,56.13
2022-12-23T16:11:16.991Z,56.65
2022-12-23T16:14:00.678Z,60.95
2022-12-23T16:16:40.765Z,60.17
2022-12-23T16:19:41.953Z,66.38
2022-12-23T16:22:29.336Z,70.95
2022-12-23T16:24:56.658Z,64.40
2022-12-23T16:27:51.389Z,57.53
2022-12-23T16:30:29.601Z,61.60
2022-12-23T16:33:02.399Z,60.80
2022-12-23T16:35:31.949Z,60.40
2022-12-23T16:38:18.964Z,58.47
2022-12-23T16:40:48.911Z,59.97
2022-12-23T16:43:17.619Z,56.53
2022-12-23T16:45:47.208Z,59.47
2022-12-23T16:51:21.940Z,50.08
2022-12-23T16:53:56.969Z,50.60
2022-12-23T16:56:29.780Z,48.35
2022-12-23T16:58:59.447Z,48.17
2022-12-23T17:02:05.912Z,49.15
2022-12-23T17:04:33.264Z,46.88
2022-12-23T17:07:18.209Z,46.55
2022-12-23T17:09:47.630Z,45.38
2022-12-23T17:12:19.020Z,45.85
2022-12-23T17:14:46.361Z,44.42
2022-12-23T17:17:18.155Z,43.20
2022-12-23T17:19:45.464Z,43.70
2022-12-23T17:22:16.531Z,44.00
2022-12-23T17:24:45.028Z,42.42
2022-12-23T17:27:15.609Z,44.03
2022-12-23T17:29:43.185Z,42.75
2022-12-23T17:32:16.614Z,43.80
2022-12-23T17:34:46.430Z,43.67
2022-12-23T17:37:19.500Z,44.10
2022-12-23T17:39:47.807Z,44.70
2022-12-23T17:42:25.801Z,45.78
2022-12-23T17:44:53.613Z,44.28
2022-12-23T17:47:23.256Z,44.97
2022-12-23T17:50:38.517Z,46.40
2022-12-23T17:53:08.367Z,46.88
2022-12-23T17:55:36.864Z,45.38
2022-12-23T17:58:06.974Z,45.25
2022-12-23T18:00:37.691Z,45.78
2022-12-23T18:03:06.545Z,46.08
2022-12-23T18:05:36.687Z,44.45
2022-12-23T18:08:06.332Z,46.70
2022-12-23T18:10:37.294Z,48.75
2022-12-23T18:13:08.002Z,46.78
2022-12-23T18:15:39.326Z,48.30
2022-12-23T18:18:31.176Z,50.00
2022-12-23T18:21:00.607Z,48.97
2022-12-23T18:23:32.679Z,50.45
2022-12-23T18:26:00.894Z,46.08
2022-12-23T18:28:28.277Z,48.20
2022-12-23T18:30:58.032Z,48.58
2022-12-23T18:33:29.418Z,49.28
2022-12-23T18:35:58.371Z,47.38
2022-12-23T18:38:25.633Z,48.42
2022-12-23T18:40:54.943Z,48.30
2022-12-23T18:43:25.061Z,47.83
2022-12-23T18:45:58.244Z,49.47
2022-12-23T18:48:27.769Z,48.05
2022-12-23T18:50:55.089Z,48.67
2022-12-23T18:53:25.358Z,48.88
2022-12-23T18:55:55.583Z,46.75
2022-12-23T18:58:28.863Z,47.85
2022-12-23T19:00:58.005Z,48.60
2022-12-23T19:03:28.446Z,46.92
2022-12-23T19:05:57.787Z,48.53
2022-12-23T19:08:29.322Z,47.22
2022-12-23T19:10:59.088Z,49.45
2022-12-23T19:13:26.323Z,49.33
2022-12-23T19:15:56.896Z,49.42
2022-12-23T19:18:25.746Z,47.80
2022-12-23T19:20:53.011Z,48.65
2022-12-23T19:23:20.377Z,50.40
2022-12-23T19:25:55.312Z,47.88
2022-12-23T19:28:28.973Z,48.97
2022-12-23T19:30:59.257Z,49.70
2022-12-23T19:33:26.615Z,48.67
2022-12-23T19:35:55.392Z,49.40
2022-12-23T19:38:23.845Z,52.50
2022-12-23T19:41:10.868Z,50.65
2022-12-23T19:43:38.953Z,50.88
2022-12-23T19:50:12.506Z,48.97
2022-12-23T19:52:39.888Z,49.45
2022-12-23T19:55:10.704Z,49.45
2022-12-23T19:57:38.069Z,48.38
2022-12-23T20:00:06.714Z,47.78
2022-12-23T20:02:39.283Z,49.95
2022-12-23T20:05:07.014Z,47.10
2022-12-23T20:07:38.088Z,48.80
2022-12-23T20:10:07.264Z,47.22
2022-12-23T20:12:36.793Z,51.90
2022-12-23T20:15:05.749Z,48.70
2022-12-23T20:17:33.309Z,49.80
2022-12-23T20:20:01.187Z,53.15
2022-12-23T20:22:28.422Z,54.22
2022-12-23T20:24:55.761Z,50.78
2022-12-23T20:27:27.814Z,51.72
2022-12-23T20:29:55.504Z,53.70
2022-12-23T20:32:23.026Z,53.20
2022-12-23T20:35:04.269Z,49.80
2022-12-23T20:37:31.599Z,51.88
2022-12-23T20:39:58.853Z,51.92
2022-12-23T20:42:28.255Z,52.15
2022-12-23T20:44:55.703Z,51.17
2022-12-23T20:47:25.313Z,50.40
2022-12-23T20:49:58.335Z,47.97
2022-12-23T20:52:25.707Z,50.08
2022-12-23T20:54:53.274Z,50.55
2022-12-23T20:57:20.672Z,50.10
2022-12-23T20:59:47.925Z,48.08
2022-12-23T21:02:20.800Z,49.28
2022-12-23T21:04:50.416Z,49.92
2022-12-23T21:07:20.085Z,50.67
2022-12-23T21:09:47.345Z,50.17
2022-12-23T21:12:20.767Z,50.08
2022-12-23T21:14:48.176Z,48.75
2022-12-23T21:17:15.757Z,51.75
2022-12-23T21:19:42.986Z,48.92
2022-12-23T21:22:10.577Z,50.13
2022-12-23T21:24:38.036Z,49.80
2022-12-23T21:27:07.949Z,49.42
2022-12-23T21:29:35.296Z,49.10
2022-12-23T21:32:03.141Z,47.72
2022-12-23T21:34:30.444Z,47.60
2022-12-23T21:37:00.527Z,47.00
2022-12-23T21:39:27.900Z,45.97
2022-12-23T21:41:55.135Z,45.60
2022-12-23T21:44:22.635Z,45.38
2022-12-23T21:46:51.332Z,44.33
2022-12-23T21:49:21.357Z,47.03
2022-12-23T21:51:51.355Z,47.38
2022-12-23T21:54:19.331Z,46.50
2022-12-23T21:57:04.769Z,47.50
2022-12-23T21:59:35.179Z,50.78
2022-12-23T22:02:05.243Z,49.22
2022-12-23T22:04:38.363Z,46.55
2022-12-23T22:07:06.095Z,49.05
2022-12-23T22:09:36.992Z,48.15
2022-12-23T22:12:17.349Z,48.72
2022-12-23T22:14:47.200Z,48.33
2022-12-23T22:17:14.555Z,48.10
2022-12-23T22:19:41.809Z,48.55
2022-12-23T22:22:09.307Z,45.88
2022-12-23T22:24:39.068Z,45.40
2022-12-23T22:27:07.920Z,45.03
2022-12-23T22:29:35.430Z,46.88
2022-12-23T22:32:02.939Z,44.63
2022-12-23T22:34:30.351Z,44.47
2022-12-23T22:37:00.112Z,44.10
2022-12-23T22:39:27.605Z,44.45
2022-12-23T22:41:59.596Z,44.08
2022-12-23T22:44:29.619Z,41.78
2022-12-23T22:46:59.460Z,45.17
2022-12-23T22:49:26.816Z,42.50
2022-12-23T22:51:54.187Z,45.40
2022-12-23T22:54:24.936Z,44.50
2022-12-23T22:56:52.150Z,48.05
2022-12-23T22:59:22.396Z,46.53
2022-12-23T23:01:51.242Z,49.03
2022-12-23T23:04:19.247Z,48.70
2022-12-23T23:06:48.636Z,50.97
2022-12-23T23:09:18.601Z,50.55
2022-12-23T23:11:46.236Z,50.80
2022-12-23T23:14:13.743Z,52.25
2022-12-23T23:16:41.349Z,51.95
2022-12-23T23:19:11.303Z,52.65
2022-12-23T23:21:38.654Z,51.75
2022-12-23T23:24:08.905Z,52.47
2022-12-23T23:26:39.242Z,52.65
2022-12-23T23:29:08.438Z,53.55
2022-12-23T23:31:44.016Z,53.60
2022-12-23T23:34:13.462Z,54.88
2022-12-23T23:36:43.144Z,54.58
2022-12-23T23:39:13.623Z,56.63
2022-12-23T23:41:41.441Z,59.55
2022-12-23T23:44:09.357Z,58.08
2022-12-23T23:46:36.708Z,56.75
2022-12-23T23:49:04.236Z,56.65
2022-12-23T23:51:32.320Z,56.97
2022-12-23T23:53:59.931Z,56.90
2022-12-23T23:56:32.334Z,57.22
2022-12-23T23:59:03.298Z,56.38
